Time;durP1;ratioP1;P1;durP2;ratioP2;P2;SDS_P1;SDS_P2;PMS_P1;PMS_P2;Temp;Humidity;BMP_temperature;BMP_pressure;BME280_temperature;BME280_humidity;BME280_pressure;Samples;Min_cycle;Max_cycle;Signal;HPM_P1;HPM_P2
2022/07/30 00:01:12;;;;;;;48.33;11.63;;;;;;;23.85;100.00;97892.22;5007875;28;20399;-53
2022/07/30 00:03:37;;;;;;;44.33;10.05;;;;;;;24.30;100.00;97878.03;5008461;28;20057;-53
2022/07/30 00:06:02;;;;;;;54.03;12.48;;;;;;;23.73;100.00;97890.72;5010235;28;20045;-54
2022/07/30 00:08:28;;;;;;;46.83;10.95;;;;;;;23.85;100.00;97889.56;5008099;28;20092;-54
2022/07/30 00:10:54;;;;;;;49.13;11.50;;;;;;;24.17;100.00;97893.56;5007599;28;20522;-53
2022/07/30 00:13:19;;;;;;;55.28;12.57;;;;;;;23.67;100.00;97898.34;5009393;28;20936;-53
2022/07/30 00:15:45;;;;;;;51.10;11.07;;;;;;;23.74;100.00;97897.72;5007618;28;20530;-56
2022/07/30 00:18:12;;;;;;;61.40;11.95;;;;;;;23.96;100.00;97892.00;5010411;28;20484;-54
2022/07/30 00:20:39;;;;;;;44.13;10.32;;;;;;;23.39;100.00;97899.31;5008779;28;20671;-54
2022/07/30 00:23:05;;;;;;;47.67;10.85;;;;;;;24.03;100.00;97895.75;5009787;28;20030;-57
2022/07/30 00:25:32;;;;;;;40.80;9.98;;;;;;;23.86;100.00;97891.25;5012936;28;20056;-55
2022/07/30 00:27:57;;;;;;;43.58;12.13;;;;;;;23.16;100.00;97889.03;5009992;28;20057;-55
2022/07/30 00:30:23;;;;;;;50.20;13.15;;;;;;;23.31;100.00;97880.59;5005500;28;20399;-53
2022/07/30 00:32:49;;;;;;;63.97;13.85;;;;;;;23.51;100.00;97876.84;5006333;28;20022;-54
2022/07/30 00:35:14;;;;;;;51.03;9.95;;;;;;;24.03;100.00;97871.78;5006362;28;20056;-57
2022/07/30 00:37:40;;;;;;;51.67;12.32;;;;;;;23.76;100.00;97875.28;5008941;28;20026;-53
2022/07/30 00:40:07;;;;;;;62.65;13.63;;;;;;;23.37;100.00;97885.31;5007952;28;20051;-54
2022/07/30 00:42:44;;;;;;;45.25;10.80;;;;;;;23.71;100.00;97882.03;5007580;28;20780;-54
2022/07/30 00:45:11;;;;;;;52.08;10.48;;;;;;;23.56;100.00;97879.03;5008767;28;20801;-56
2022/07/30 00:47:37;;;;;;;42.22;10.18;;;;;;;23.50;100.00;97884.97;5007852;28;20036;-54
2022/07/30 00:50:04;;;;;;;57.42;11.20;;;;;;;23.42;100.00;97888.38;5009499;28;20029;-54
2022/07/30 00:52:31;;;;;;;39.17;10.73;;;;;;;22.97;100.00;97892.53;5008828;28;20065;-54
2022/07/30 00:54:57;;;;;;;40.42;10.15;;;;;;;22.79;100.00;97908.41;5010743;28;20033;-55
2022/07/30 00:57:23;;;;;;;36.78;10.23;;;;;;;22.40;100.00;97908.41;5004913;28;20653;-53
2022/07/30 00:59:48;;;;;;;47.22;11.63;;;;;;;22.47;100.00;97906.88;5009112;28;20032;-53
2022/07/30 01:02:13;;;;;;;39.95;9.07;;;;;;;23.12;100.00;97902.75;5005476;28;20250;-54
2022/07/30 01:04:39;;;;;;;37.50;8.80;;;;;;;23.43;100.00;97892.69;5009250;28;20492;-56
2022/07/30 01:07:04;;;;;;;37.60;10.30;;;;;;;22.54;100.00;97901.03;5007707;28;20054;-55
2022/07/30 01:09:30;;;;;;;31.02;9.80;;;;;;;22.79;100.00;97908.41;5009092;28;20026;-55
2022/07/30 01:11:55;;;;;;;45.83;11.40;;;;;;;23.07;100.00;97896.06;5007377;28;20045;-53
2022/07/30 01:14:21;;;;;;;38.47;9.55;;;;;;;23.13;100.00;97899.13;5008674;28;20869;-53
2022/07/30 01:16:46;;;;;;;41.38;11.10;;;;;;;22.97;100.00;97897.84;5009066;28;20037;-53
2022/07/30 01:22:15;;;;;;;41.17;11.40;;;;;;;23.21;100.00;97907.19;5007812;28;20049;-54
2022/07/30 01:24:57;;;;;;;46.17;12.13;;;;;;;21.82;100.00;97924.25;5006917;28;20495;-53
2022/07/30 01:27:27;;;;;;;29.77;9.70;;;;;;;22.75;100.00;97922.13;5009145;28;20551;-53
2022/07/30 01:29:53;;;;;;;45.47;11.68;;;;;;;22.43;100.00;97913.47;5008362;28;20762;-54
2022/07/30 01:32:21;;;;;;;32.95;9.23;;;;;;;23.47;100.00;97907.38;5007842;28;20125;-53
2022/07/30 01:34:49;;;;;;;37.83;9.95;;;;;;;23.26;100.00;97908.44;5008229;28;20113;-55
2022/07/30 01:37:16;;;;;;;39.28;9.32;;;;;;;23.38;100.00;97901.13;5008080;28;20037;-54
2022/07/30 01:39:42;;;;;;;42.28;10.18;;;;;;;23.32;100.00;97906.19;5008832;28;20025;-55
2022/07/30 01:42:12;;;;;;;41.55;11.00;;;;;;;23.26;100.00;97905.78;5007164;28;20112;-53
2022/07/30 01:44:41;;;;;;;34.55;10.38;;;;;;;22.55;100.00;97915.97;5009241;28;20141;-54
2022/07/30 01:47:10;;;;;;;48.15;10.30;;;;;;;23.04;100.00;97903.47;5007113;28;20104;-55
2022/07/30 01:49:37;;;;;;;35.30;9.75;;;;;;;23.24;100.00;97902.44;5004427;28;20077;-54
2022/07/30 01:52:04;;;;;;;59.50;12.13;;;;;;;23.29;100.00;97908.16;5005711;28;20778;-54
2022/07/30 01:54:32;;;;;;;35.67;10.57;;;;;;;22.97;100.00;97912.97;5007207;28;20029;-54
2022/07/30 01:56:59;;;;;;;41.78;10.88;;;;;;;23.32;100.00;97915.00;5005188;28;20045;-54
2022/07/30 01:59:27;;;;;;;41.88;12.27;;;;;;;23.15;100.00;97916.59;5008976;28;20048;-55
2022/07/30 02:01:52;;;;;;;43.65;11.90;;;;;;;23.00;100.00;97915.38;5007978;28;20041;-56
2022/07/30 02:04:18;;;;;;;42.80;12.88;;;;;;;23.24;100.00;97913.06;5008417;28;20030;-53
2022/07/30 02:06:59;;;;;;;45.33;13.30;;;;;;;22.88;100.00;97918.19;5009682;28;20534;-54
2022/07/30 02:09:32;;;;;;;51.30;13.03;;;;;;;22.82;100.00;97924.06;5008262;28;20033;-56
2022/07/30 02:14:58;;;;;;;38.05;11.55;;;;;;;23.35;100.00;97921.88;5009406;28;20125;-54
2022/07/30 02:17:31;;;;;;;39.75;11.77;;;;;;;23.05;100.00;97915.81;5009285;28;20583;-53
2022/07/30 02:19:58;;;;;;;44.92;12.45;;;;;;;22.74;100.00;97923.13;5010258;28;20511;-53
2022/07/30 02:22:26;;;;;;;43.78;12.70;;;;;;;23.39;100.00;97909.94;5010810;28;20049;-56
2022/07/30 02:24:54;;;;;;;52.45;15.52;;;;;;;23.14;100.00;97906.97;5010935;28;20025;-54
2022/07/30 02:27:29;;;;;;;50.47;14.63;;;;;;;23.40;100.00;97906.31;5013520;28;20052;-55
2022/07/30 02:29:57;;;;;;;49.00;14.15;;;;;;;23.22;100.00;97903.56;5011753;28;20033;-54
2022/07/30 02:32:25;;;;;;;38.33;12.25;;;;;;;23.52;100.00;97905.13;5011892;28;20144;-54
2022/07/30 02:34:54;;;;;;;50.80;14.57;;;;;;;23.42;100.00;97904.34;5013375;28;20028;-55
2022/07/30 02:37:22;;;;;;;45.55;12.98;;;;;;;23.94;100.00;97896.66;5012005;28;20099;-55
2022/07/30 02:39:49;;;;;;;51.40;16.30;;;;;;;23.14;100.00;97900.78;5012562;28;20075;-54
2022/07/30 02:42:15;;;;;;;42.15;12.77;;;;;;;23.26;100.00;97900.47;5009272;28;20034;-54
2022/07/30 02:44:44;;;;;;;42.42;14.57;;;;;;;23.33;100.00;97906.06;5010526;28;20045;-54
2022/07/30 02:47:15;;;;;;;49.10;17.50;;;;;;;23.10;100.00;97908.22;5011904;28;20746;-53
2022/07/30 02:49:43;;;;;;;46.85;15.35;;;;;;;22.54;100.00;97907.16;5011911;28;20152;-54
2022/07/30 02:52:12;;;;;;;51.72;14.00;;;;;;;22.78;100.00;97909.38;5007230;28;20034;-54
2022/07/30 02:54:40;;;;;;;45.72;13.57;;;;;;;22.63;100.00;97908.16;5012670;28;20109;-54
2022/07/30 02:57:08;;;;;;;42.88;11.88;;;;;;;22.80;100.00;97904.75;5011478;28;20065;-57
2022/07/30 02:59:36;;;;;;;37.15;9.25;;;;;;;23.77;100.00;97892.13;5012389;28;20052;-55
2022/07/30 03:02:03;;;;;;;46.20;13.32;;;;;;;22.96;100.00;97898.03;5012251;28;20045;-57
2022/07/30 03:04:30;;;;;;;46.00;15.65;;;;;;;22.67;100.00;97902.38;5012264;28;20026;-57
2022/07/30 03:06:58;;;;;;;46.25;13.48;;;;;;;23.11;100.00;97880.63;5011868;28;20591;-56
2022/07/30 03:09:23;;;;;;;39.75;11.65;;;;;;;23.13;100.00;97894.63;5010257;28;20121;-54
2022/07/30 03:11:50;;;;;;;45.13;14.15;;;;;;;22.07;100.00;97897.16;5010149;28;20631;-54
2022/07/30 03:14:16;;;;;;;53.90;13.73;;;;;;;22.14;100.00;97902.78;5012010;28;20033;-53
2022/07/30 03:16:47;;;;;;;48.65;9.85;;;;;;;22.57;100.00;97909.56;5011131;28;20096;-53
2022/07/30 03:19:16;;;;;;;66.05;13.50;;;;;;;22.10;100.00;97907.53;5008520;28;20030;-53
2022/07/30 03:21:43;;;;;;;310.63;15.70;;;;;;;22.77;100.00;97896.22;5009661;28;20822;-56
2022/07/30 03:24:11;;;;;;;393.80;19.15;;;;;;;22.49;100.00;97902.25;5010516;28;20194;-56
2022/07/30 03:26:38;;;;;;;91.63;13.80;;;;;;;22.31;100.00;97901.28;5011265;28;20049;-55
2022/07/30 03:29:06;;;;;;;84.25;14.45;;;;;;;22.15;100.00;97904.47;5008832;28;20037;-54
2022/07/30 03:31:31;;;;;;;96.88;15.80;;;;;;;22.37;100.00;97907.84;5009211;28;20037;-56
2022/07/30 03:33:58;;;;;;;108.88;13.15;;;;;;;22.43;100.00;97908.16;5011129;28;20048;-54
2022/07/30 03:36:24;;;;;;;146.88;14.48;;;;;;;22.47;100.00;97916.69;5009521;28;20163;-53
2022/07/30 03:38:51;;;;;;;326.60;18.08;;;;;;;21.83;100.00;97920.63;4978426;28;20504;-53
2022/07/30 03:41:17;;;;;;;264.88;15.57;;;;;;;22.09;100.00;97921.81;5009685;28;20046;-55
2022/07/30 03:43:43;;;;;;;454.15;20.63;;;;;;;22.01;100.00;97918.16;5008112;28;20404;-54
2022/07/30 03:46:09;;;;;;;175.98;14.57;;;;;;;21.77;100.00;97923.81;5010279;28;20499;-54
2022/07/30 03:48:36;;;;;;;59.35;12.75;;;;;;;21.94;100.00;97923.16;5010068;28;20032;-54
2022/07/30 03:51:03;;;;;;;50.15;13.43;;;;;;;21.53;100.00;97930.31;5008845;28;20037;-53
2022/07/30 03:53:28;;;;;;;92.95;12.98;;;;;;;21.48;100.00;97928.03;5009498;28;20404;-56
2022/07/30 03:55:54;;;;;;;32.65;8.18;;;;;;;22.89;100.00;97919.84;5010987;28;20052;-55
2022/07/30 03:58:20;;;;;;;61.03;12.98;;;;;;;22.01;100.00;97923.47;5009511;28;20036;-57
2022/07/30 04:00:48;;;;;;;33.13;10.13;;;;;;;22.66;100.00;97923.78;5008761;28;20062;-55
2022/07/30 04:03:23;;;;;;;55.33;12.82;;;;;;;21.93;100.00;97926.81;5009764;28;20507;-55
2022/07/30 04:05:48;;;;;;;35.17;9.57;;;;;;;22.51;100.00;97929.53;5009585;28;20045;-53
2022/07/30 04:08:14;;;;;;;39.53;11.40;;;;;;;21.78;100.00;97929.00;5010330;28;20087;-54
2022/07/30 04:10:39;;;;;;;36.33;11.10;;;;;;;22.01;100.00;97929.59;5007864;28;20034;-54
2022/07/30 04:13:04;;;;;;;39.95;11.88;;;;;;;21.95;100.00;97936.31;5009317;28;20733;-52
2022/07/30 04:15:36;;;;;;;31.30;9.45;;;;;;;22.59;100.00;97928.00;5010929;28;20041;-53
2022/07/30 04:18:04;;;;;;;38.42;9.43;;;;;;;22.73;100.00;97932.06;5011656;28;20030;-55
2022/07/30 04:20:40;;;;;;;39.30;10.63;;;;;;;22.02;100.00;97941.06;5007495;28;20046;-53
2022/07/30 04:23:08;;;;;;;43.20;11.27;;;;;;;22.63;100.00;97940.03;5009305;28;20179;-52
2022/07/30 04:25:33;;;;;;;36.10;10.00;;;;;;;22.93;100.00;97943.50;5009086;28;20050;-54
2022/07/30 04:27:59;;;;;;;39.42;10.15;;;;;;;22.75;100.00;97944.22;5009781;28;20036;-52
2022/07/30 04:30:26;;;;;;;39.65;10.95;;;;;;;22.62;100.00;97946.31;5005746;28;20032;-53
2022/07/30 04:32:51;;;;;;;42.50;11.35;;;;;;;22.27;100.00;97950.38;5008529;28;20683;-52
2022/07/30 04:35:29;;;;;;;40.70;9.23;;;;;;;23.36;100.00;97939.50;5010259;28;20515;-55
2022/07/30 04:37:55;;;;;;;39.17;11.20;;;;;;;22.66;100.00;97950.38;5010556;28;20045;-56
2022/07/30 04:40:20;;;;;;;52.05;12.73;;;;;;;22.06;100.00;97961.91;5007166;28;20057;-53
2022/07/30 04:42:46;;;;;;;49.13;12.95;;;;;;;22.00;100.00;97965.13;5007471;28;20645;-56
2022/07/30 04:45:11;;;;;;;42.65;12.07;;;;;;;22.38;100.00;97976.81;5006462;28;20076;-56
2022/07/30 04:47:36;;;;;;;46.17;12.00;;;;;;;22.25;100.00;97965.56;5011301;28;20080;-55
2022/07/30 04:50:05;;;;;;;48.33;12.23;;;;;;;22.71;100.00;97969.41;5010333;28;20030;-55
2022/07/30 04:52:31;;;;;;;43.33;12.23;;;;;;;22.43;100.00;97977.25;5007285;28;20030;-56
2022/07/30 04:55:03;;;;;;;28.95;11.98;;;;;;;22.39;100.00;97972.34;5009490;28;20025;-54
2022/07/30 04:57:30;;;;;;;;;;;;;;;22.86;100.00;97970.66;5008064;28;20846;-55
2022/07/30 04:59:56;;;;;;;39.40;13.25;;;;;;;22.99;100.00;97969.53;5009327;28;20460;-54
2022/07/30 05:02:23;;;;;;;37.42;12.52;;;;;;;23.03;100.00;97968.25;5009795;28;20136;-54
2022/07/30 05:04:51;;;;;;;34.10;10.90;;;;;;;23.46;100.00;97969.59;5007402;28;20052;-56
2022/07/30 05:07:18;;;;;;;39.95;12.13;;;;;;;23.12;100.00;97970.09;5009397;28;20091;-53
2022/07/30 05:09:44;;;;;;;41.75;13.45;;;;;;;22.82;100.00;97982.56;5010523;28;20026;-53
2022/07/30 05:12:09;;;;;;;31.80;12.65;;;;;;;23.08;100.00;97980.19;5008559;28;20036;-53
2022/07/30 05:14:34;;;;;;;32.72;12.00;;;;;;;23.51;100.00;97975.34;5009163;28;20030;-53
2022/07/30 05:17:00;;;;;;;32.63;13.20;;;;;;;23.32;100.00;97978.88;5008563;28;20052;-54
2022/07/30 05:19:25;;;;;;;34.47;10.00;;;;;;;23.58;100.00;97979.09;5009367;28;20068;-54
2022/07/30 05:21:51;;;;;;;43.45;14.55;;;;;;;23.48;100.00;97978.28;5007054;28;20136;-56
2022/07/30 05:24:17;;;;;;;41.03;14.35;;;;;;;23.71;100.00;97983.22;5008701;28;20038;-53
2022/07/30 05:26:42;;;;;;;37.00;14.35;;;;;;;23.43;100.00;97980.53;5008293;28;20059;-54
2022/07/30 05:29:08;;;;;;;39.63;14.00;;;;;;;23.22;100.00;98004.69;5008631;28;20494;-54
2022/07/30 05:31:33;;;;;;;37.78;11.15;;;;;;;23.88;100.00;98006.47;5004912;28;20041;-56
2022/07/30 05:33:59;;;;;;;39.72;13.05;;;;;;;23.67;100.00;97998.66;5007221;28;20115;-54
2022/07/30 05:36:24;;;;;;;39.65;14.18;;;;;;;23.14;100.00;98009.84;5008485;28;20520;-56
2022/07/30 05:38:50;;;;;;;41.25;16.92;;;;;;;22.94;100.00;98006.34;5009549;28;20026;-57
2022/07/30 05:41:15;;;;;;;28.77;10.90;;;;;;;23.72;100.00;97995.56;5008404;28;20034;-57
2022/07/30 05:43:41;;;;;;;38.72;13.07;;;;;;;23.03;100.00;98005.50;5009807;28;20025;-55
2022/07/30 05:46:07;;;;;;;40.88;15.73;;;;;;;23.14;100.00;98005.41;5009393;28;20050;-57
2022/07/30 05:48:34;;;;;;;31.98;14.38;;;;;;;23.28;100.00;98002.28;5012193;28;20056;-55
2022/07/30 05:51:00;;;;;;;31.27;13.18;;;;;;;23.77;100.00;97994.16;5008963;28;20195;-55
2022/07/30 05:53:26;;;;;;;42.28;15.02;;;;;;;23.52;100.00;97989.47;5010212;28;20448;-56
2022/07/30 05:55:51;;;;;;;42.35;16.70;;;;;;;23.44;100.00;97995.53;5014583;28;20049;-57
2022/07/30 05:58:17;;;;;;;42.65;16.23;;;;;;;23.57;100.00;97998.69;5013736;28;20034;-56
2022/07/30 06:00:42;;;;;;;37.03;12.85;;;;;;;24.32;100.00;97996.00;5009912;28;20048;-58
2022/07/30 06:03:08;;;;;;;37.78;15.32;;;;;;;23.97;100.00;97992.28;5014088;28;20022;-57
2022/07/30 06:05:33;;;;;;;36.28;15.32;;;;;;;23.82;100.00;97996.38;5011717;28;20482;-57
2022/07/30 06:07:59;;;;;;;40.05;15.13;;;;;;;23.70;100.00;98003.69;5013193;28;20026;-54
2022/07/30 06:10:25;;;;;;;47.15;17.13;;;;;;;24.22;100.00;98003.19;5012244;28;20517;-54
2022/07/30 06:12:50;;;;;;;37.78;14.80;;;;;;;25.18;100.00;97994.63;5013587;28;20037;-54
2022/07/30 06:15:15;;;;;;;38.45;16.88;;;;;;;24.25;100.00;98003.75;5011300;28;20056;-55
2022/07/30 06:17:46;;;;;;;32.70;14.88;;;;;;;24.49;100.00;98005.00;5012225;28;20025;-55
2022/07/30 06:20:12;;;;;;;51.17;17.05;;;;;;;23.95;100.00;98020.88;5010612;28;20037;-53
2022/07/30 06:22:38;;;;;;;40.83;15.85;;;;;;;24.44;100.00;98008.13;5010127;28;20018;-54
2022/07/30 06:25:04;;;;;;;31.67;14.45;;;;;;;24.54;100.00;98004.59;5011701;28;20075;-54
2022/07/30 06:27:32;;;;;;;40.47;15.40;;;;;;;24.75;100.00;97999.78;5011912;28;20395;-54
2022/07/30 06:29:58;;;;;;;46.58;16.50;;;;;;;24.69;100.00;98000.41;5009157;28;20033;-54
2022/07/30 06:32:23;;;;;;;37.13;16.45;;;;;;;24.88;100.00;98004.72;5009169;28;20033;-55
2022/07/30 06:34:49;;;;;;;41.20;17.67;;;;;;;24.52;100.00;98004.75;5011297;28;20042;-54
2022/07/30 06:37:14;;;;;;;45.08;16.77;;;;;;;24.41;100.00;98000.44;5013234;28;20643;-55
2022/07/30 06:39:40;;;;;;;38.22;14.93;;;;;;;24.35;100.00;97998.34;5010575;28;20029;-55
2022/07/30 06:42:05;;;;;;;55.55;15.88;;;;;;;25.09;100.00;97990.22;5009774;28;20917;-53
2022/07/30 06:44:30;;;;;;;35.83;15.15;;;;;;;25.17;100.00;97983.13;5012065;28;20510;-56
2022/07/30 06:46:56;;;;;;;36.85;14.85;;;;;;;26.12;100.00;97988.53;5017800;28;20655;-54
2022/07/30 06:49:21;;;;;;;34.13;14.57;;;;;;;26.23;100.00;97983.84;5012261;28;20022;-56
2022/07/30 06:51:47;;;;;;;34.42;15.07;;;;;;;26.52;100.00;97988.78;5010327;28;20049;-56
2022/07/30 06:54:13;;;;;;;33.15;13.02;;;;;;;25.95;100.00;97990.31;5012603;28;20032;-54
2022/07/30 06:56:38;;;;;;;32.10;14.00;;;;;;;28.34;100.00;97985.66;5011398;28;20042;-55
2022/07/30 06:59:03;;;;;;;32.45;14.18;;;;;;;27.65;100.00;97985.44;5012528;28;20061;-55
2022/07/30 07:01:29;;;;;;;30.02;12.63;;;;;;;27.10;100.00;97977.13;5009607;28;20622;-56
2022/07/30 07:03:54;;;;;;;30.83;13.70;;;;;;;27.79;100.00;97978.50;5010250;28;20428;-55
2022/07/30 07:06:19;;;;;;;28.50;13.18;;;;;;;27.74;100.00;97983.59;5009968;28;20737;-56
2022/07/30 07:08:44;;;;;;;30.02;13.23;;;;;;;28.87;100.00;97979.66;5012466;28;20117;-53
2022/07/30 07:11:10;;;;;;;25.45;11.02;;;;;;;28.22;100.00;97985.22;5010820;28;20124;-53
2022/07/30 07:13:35;;;;;;;31.73;12.18;;;;;;;26.91;100.00;97982.84;5009972;28;20032;-54
2022/07/30 07:16:01;;;;;;;31.75;11.60;;;;;;;29.40;100.00;97981.38;5009259;28;20128;-55
2022/07/30 07:18:26;;;;;;;26.63;10.65;;;;;;;29.33;100.00;97991.16;5010245;28;20036;-54
2022/07/30 07:20:52;;;;;;;30.10;12.18;;;;;;;28.62;100.00;97980.66;5012194;28;20060;-53
2022/07/30 07:23:17;;;;;;;28.42;10.90;;;;;;;28.60;100.00;97990.75;5010309;28;20056;-53
2022/07/30 07:25:42;;;;;;;23.50;9.45;;;;;;;28.70;100.00;97985.13;5009694;28;20687;-55
2022/07/30 07:28:08;;;;;;;28.52;10.48;;;;;;;28.22;100.00;97987.91;5011042;28;20033;-53
2022/07/30 07:30:33;;;;;;;25.33;9.80;;;;;;;27.67;100.00;97988.78;5009369;28;20044;-56
2022/07/30 07:32:58;;;;;;;24.98;9.85;;;;;;;28.29;100.00;97992.56;5012215;28;20038;-54
2022/07/30 07:35:24;;;;;;;27.63;9.43;;;;;;;27.78;100.00;97985.72;5009833;28;20076;-56
2022/07/30 07:37:49;;;;;;;25.85;9.43;;;;;;;28.74;100.00;97988.28;5011312;28;20018;-54
2022/07/30 07:40:15;;;;;;;29.15;9.70;;;;;;;28.41;100.00;97986.63;5008680;28;20036;-53
2022/07/30 07:42:40;;;;;;;24.98;8.30;;;;;;;28.69;100.00;97990.69;5011430;28;20151;-56
2022/07/30 07:45:06;;;;;;;23.23;8.18;;;;;;;27.46;100.00;98000.03;5010974;28;20038;-56
2022/07/30 07:47:45;;;;;;;21.48;8.55;;;;;;;27.13;100.00;97997.41;5010152;28;20028;-55
2022/07/30 07:50:10;;;;;;;38.22;9.95;;;;;;;27.57;100.00;98004.19;5008612;28;20096;-55
2022/07/30 07:52:36;;;;;;;26.85;8.50;;;;;;;27.14;100.00;98003.56;5010602;28;20053;-54
2022/07/30 07:55:01;;;;;;;26.52;8.45;;;;;;;27.54;100.00;98008.06;5010740;28;20742;-55
2022/07/30 07:57:26;;;;;;;23.17;8.13;;;;;;;27.56;100.00;98015.94;5010134;28;20095;-53
2022/07/30 07:59:54;;;;;;;24.45;8.00;;;;;;;28.90;100.00;98001.59;5010771;28;20530;-56
2022/07/30 08:02:19;;;;;;;20.33;7.60;;;;;;;28.35;100.00;98002.59;5006691;28;20041;-53
2022/07/30 08:04:45;;;;;;;26.10;8.73;;;;;;;28.78;100.00;97997.66;5010393;28;20028;-53
2022/07/30 08:07:11;;;;;;;23.65;8.05;;;;;;;28.86;100.00;97994.06;5008283;28;20787;-53
2022/07/30 08:09:36;;;;;;;23.88;8.13;;;;;;;29.05;100.00;97992.75;5009378;28;20030;-53
2022/07/30 08:12:02;;;;;;;22.48;7.65;;;;;;;29.62;99.02;97999.47;5007552;28;20041;-55
2022/07/30 08:14:27;;;;;;;27.48;7.55;;;;;;;29.99;93.70;97995.84;5009645;28;20026;-53
2022/07/30 08:16:52;;;;;;;24.60;7.50;;;;;;;30.78;79.72;97995.13;5009687;28;20041;-55
2022/07/30 08:19:18;;;;;;;16.20;6.95;;;;;;;29.15;88.71;98013.00;5009187;28;20116;-53
2022/07/30 08:21:43;;;;;;;20.70;6.53;;;;;;;29.16;94.19;98005.78;5007201;28;20097;-54
2022/07/30 08:24:09;;;;;;;22.33;6.78;;;;;;;29.02;100.00;98010.03;5009752;28;20566;-53
2022/07/30 08:26:34;;;;;;;19.42;6.45;;;;;;;29.27;100.00;98008.03;5010938;28;20162;-54
2022/07/30 08:29:00;;;;;;;18.80;5.78;;;;;;;28.46;94.84;98005.72;5010397;28;20041;-53
2022/07/30 08:31:25;;;;;;;22.25;6.13;;;;;;;28.23;90.46;98007.50;5008426;28;20034;-53
2022/07/30 08:33:50;;;;;;;16.67;5.32;;;;;;;27.90;95.32;98010.31;5010307;28;20704;-55
2022/07/30 08:36:16;;;;;;;24.20;6.13;;;;;;;28.50;94.11;98021.47;5006926;28;20033;-53
2022/07/30 08:38:41;;;;;;;17.77;5.57;;;;;;;28.84;96.15;98007.69;5008841;28;20029;-54
2022/07/30 08:41:06;;;;;;;21.70;5.80;;;;;;;28.23;98.20;98019.09;5006332;28;20180;-53
2022/07/30 08:43:34;;;;;;;15.93;4.95;;;;;;;29.38;88.21;98015.63;5008984;28;20040;-52
2022/07/30 08:46:00;;;;;;;26.77;6.00;;;;;;;28.22;91.88;98024.63;5008883;28;20064;-54
2022/07/30 08:48:28;;;;;;;23.42;5.40;;;;;;;28.41;94.23;98028.72;5007966;28;20060;-53
2022/07/30 08:50:54;;;;;;;21.27;5.60;;;;;;;28.24;93.02;98031.47;5006381;28;20044;-55
2022/07/30 08:53:20;;;;;;;23.45;5.38;;;;;;;29.05;90.76;98019.63;5007997;28;20699;-54
2022/07/30 08:55:46;;;;;;;20.38;5.05;;;;;;;28.59;81.10;98031.16;5009956;28;20148;-53
2022/07/30 08:58:26;;;;;;;16.13;4.57;;;;;;;28.62;84.62;98031.66;4995024;28;20029;-53
2022/07/30 09:00:52;;;;;;;24.95;5.65;;;;;;;28.56;87.74;98036.88;5008177;28;20506;-53
2022/07/30 09:03:17;;;;;;;29.92;6.57;;;;;;;29.44;81.05;98027.50;5008178;28;20037;-54
2022/07/30 09:05:43;;;;;;;16.67;5.35;;;;;;;28.66;87.27;98047.41;5007133;28;20109;-54
2022/07/30 09:08:08;;;;;;;24.52;6.30;;;;;;;28.96;87.84;98037.63;5011209;28;20026;-54
2022/07/30 09:10:34;;;;;;;22.90;5.82;;;;;;;30.41;72.98;98042.75;5005313;28;20034;-54
2022/07/30 09:12:59;;;;;;;22.02;5.80;;;;;;;29.05;81.86;98041.09;5011731;28;20511;-54
2022/07/30 09:15:25;;;;;;;20.35;5.45;;;;;;;29.49;81.79;98035.84;5009226;28;20183;-53
2022/07/30 09:18:02;;;;;;;20.15;5.65;;;;;;;29.73;74.05;98045.53;5008122;28;20091;-53
2022/07/30 09:20:31;;;;;;;19.92;5.45;;;;;;;29.99;75.60;98041.56;5007254;28;20038;-54
2022/07/30 09:22:59;;;;;;;20.15;5.68;;;;;;;30.65;71.27;98044.28;5008021;28;20037;-53
2022/07/30 09:25:41;;;;;;;27.80;6.45;;;;;;;31.20;68.48;98041.13;5007100;28;20042;-54
2022/07/30 09:28:08;;;;;;;26.13;5.82;;;;;;;31.06;65.31;98038.31;5006968;28;20018;-53
2022/07/30 09:30:52;;;;;;;16.40;4.70;;;;;;;30.00;74.09;98040.56;5006519;28;20476;-54
2022/07/30 09:33:44;;;;;;;17.90;5.25;;;;;;;30.06;73.51;98042.50;5007561;28;20388;-54
2022/07/30 09:36:13;;;;;;;22.35;5.65;;;;;;;30.32;74.83;98043.88;5003827;28;20038;-54
2022/07/30 09:38:50;;;;;;;17.65;5.63;;;;;;;30.14;72.47;98037.03;5007963;28;20586;-53
2022/07/30 09:41:30;;;;;;;21.63;5.72;;;;;;;30.26;74.09;98044.63;5006430;28;20544;-53
2022/07/30 09:43:56;;;;;;;23.02;6.13;;;;;;;29.46;76.31;98043.44;5007813;28;20748;-53
2022/07/30 09:46:22;;;;;;;23.48;6.57;;;;;;;29.24;84.06;98050.53;5007710;28;20049;-55
2022/07/30 09:48:48;;;;;;;22.98;6.75;;;;;;;28.45;90.42;98048.81;5008957;28;20034;-54
2022/07/30 09:51:13;;;;;;;18.67;5.78;;;;;;;28.87;87.14;98044.91;5006863;28;20041;-53
2022/07/30 09:54:00;;;;;;;23.48;6.50;;;;;;;29.42;88.04;98043.81;5008377;28;20030;-55
2022/07/30 09:56:28;;;;;;;15.27;4.70;;;;;;;30.52;75.93;98050.34;5007963;28;20552;-57
2022/07/30 09:58:54;;;;;;;21.83;5.80;;;;;;;30.22;76.52;98040.63;5008774;28;20116;-56
2022/07/30 10:01:20;;;;;;;25.63;5.75;;;;;;;29.61;74.65;98041.59;5007235;28;20048;-54
2022/07/30 10:03:46;;;;;;;17.63;5.10;;;;;;;29.91;72.52;98037.13;5005879;28;20030;-53
2022/07/30 10:06:12;;;;;;;27.60;6.13;;;;;;;29.82;74.34;98037.41;5010167;28;20717;-53
2022/07/30 10:08:37;;;;;;;22.27;5.22;;;;;;;32.03;65.87;98039.47;5005685;28;20493;-55
2022/07/30 10:11:03;;;;;;;17.50;4.53;;;;;;;32.30;64.56;98038.78;5009169;28;20038;-53
2022/07/30 10:13:28;;;;;;;21.15;5.20;;;;;;;31.85;61.02;98036.44;5006646;28;20029;-54
2022/07/30 10:15:54;;;;;;;16.65;4.78;;;;;;;32.35;60.71;98039.84;5008878;28;20566;-54
2022/07/30 10:18:20;;;;;;;16.90;4.82;;;;;;;31.02;61.52;98038.88;5005130;28;20025;-54
2022/07/30 10:20:46;;;;;;;14.82;4.30;;;;;;;33.38;54.12;98039.69;5006815;28;20188;-54
2022/07/30 10:23:12;;;;;;;19.20;4.80;;;;;;;33.76;51.86;98030.09;5010235;28;20112;-54
2022/07/30 10:25:38;;;;;;;20.67;4.93;;;;;;;34.56;47.65;98032.53;5007469;28;20042;-54
2022/07/30 10:28:04;;;;;;;18.15;4.20;;;;;;;32.93;51.00;98027.75;5007853;28;20108;-53
2022/07/30 10:30:31;;;;;;;14.35;4.07;;;;;;;34.62;48.07;98028.13;5005868;28;20462;-54
2022/07/30 10:32:58;;;;;;;18.73;4.40;;;;;;;31.75;55.18;98034.09;5007123;28;20088;-53
2022/07/30 10:35:24;;;;;;;17.33;4.63;;;;;;;30.68;56.31;98029.63;5006322;28;20133;-54
2022/07/30 10:37:51;;;;;;;18.02;4.40;;;;;;;31.51;55.14;98032.69;5003797;28;20157;-54
2022/07/30 10:40:16;;;;;;;16.73;4.57;;;;;;;31.66;52.69;98025.31;5007104;28;20499;-54
2022/07/30 10:43:24;;;;;;;15.57;4.22;;;;;;;30.61;55.47;98009.88;5012077;28;20085;-55
2022/07/30 10:46:01;;;;;;;21.30;4.85;;;;;;;31.06;56.49;98024.00;4982214;28;20045;-57
2022/07/30 10:48:27;;;;;;;16.10;4.60;;;;;;;30.49;58.78;98029.22;5011362;28;20108;-56
2022/07/30 10:50:56;;;;;;;14.40;4.40;;;;;;;32.30;51.66;98028.81;5011071;28;20680;-56
2022/07/30 10:53:41;;;;;;;16.52;4.47;;;;;;;32.22;51.21;98018.19;5010381;28;20101;-57
2022/07/30 10:56:18;;;;;;;15.10;4.43;;;;;;;32.49;46.59;98023.69;5009836;28;20042;-56
2022/07/30 10:59:05;;;;;;;16.63;4.43;;;;;;;32.25;50.57;98013.22;5011997;28;20034;-53
2022/07/30 11:01:50;;;;;;;17.40;4.57;;;;;;;33.96;46.28;98008.38;5010701;28;20045;-52
2022/07/30 11:04:23;;;;;;;17.73;4.63;;;;;;;30.91;50.38;98022.19;5009564;28;20056;-52
2022/07/30 11:06:49;;;;;;;15.77;4.50;;;;;;;30.92;54.13;98023.88;5008321;28;20038;-53
2022/07/30 11:09:33;;;;;;;22.30;4.97;;;;;;;30.60;55.01;98018.97;5007695;28;20403;-53
2022/07/30 11:11:59;;;;;;;24.27;5.28;;;;;;;30.59;53.16;98022.69;5009381;28;20711;-53
2022/07/30 11:14:44;;;;;;;18.40;4.68;;;;;;;31.82;47.50;98018.81;5011035;28;20487;-53
2022/07/30 11:17:10;;;;;;;24.27;4.88;;;;;;;33.77;46.16;98002.81;5010867;28;20730;-56
2022/07/30 11:20:03;;;;;;;16.35;4.38;;;;;;;32.33;47.42;98004.13;5009003;28;20032;-55
2022/07/30 11:22:34;;;;;;;20.20;4.75;;;;;;;32.16;49.03;98013.59;5009248;28;20168;-53